TimePDT,TemperatureF,Dew PointF,Humidity,Sea Level PressureIn,VisibilityMPH,Wind Direction,Wind SpeedMPH,Gust SpeedMPH,PrecipitationIn,Events,Conditions,WindDirDegrees,DateUTC
12:56 AM,46.0,42.1,86,29.86,10.0,Calm,Calm,-,N/A,,Overcast,0,2011-10-03 07:56:00
1:56 AM,46.9,39.9,77,29.84,10.0,Calm,Calm,-,N/A,,Overcast,0,2011-10-03 08:56:00
2:56 AM,46.9,39.9,77,29.84,10.0,Calm,Calm,-,N/A,,Overcast,0,2011-10-03 09:56:00
3:56 AM,48.0,39.9,74,29.83,10.0,Calm,Calm,-,N/A,,Overcast,0,2011-10-03 10:56:00
4:56 AM,46.9,41.0,80,29.84,10.0,Calm,Calm,-,N/A,,Overcast,0,2011-10-03 11:56:00
5:56 AM,45.0,42.1,90,29.84,10.0,SW,4.6,-,N/A,,Overcast,230,2011-10-03 12:56:00
6:56 AM,46.0,41.0,83,29.84,10.0,Calm,Calm,-,N/A,,Overcast,0,2011-10-03 13:56:00
7:56 AM,44.1,42.1,93,29.85,10.0,Calm,Calm,-,N/A,,Overcast,0,2011-10-03 14:56:00
8:56 AM,45.0,43.0,93,29.85,10.0,Calm,Calm,-,N/A,,Overcast,0,2011-10-03 15:56:00
9:56 AM,45.0,44.1,97,29.86,9.0,Calm,Calm,-,N/A,,Overcast,0,2011-10-03 16:56:00
10:56 AM,46.0,44.1,93,29.85,10.0,Calm,Calm,-,0.00,,Overcast,0,2011-10-03 17:56:00
11:47 AM,46.4,44.6,93,29.86,10.0,Calm,Calm,-,N/A,,Mostly Cloudy,0,2011-10-03 18:47:00
11:56 AM,46.0,44.1,93,29.85,10.0,Calm,Calm,-,N/A,,Overcast,0,2011-10-03 18:56:00
12:19 PM,46.4,44.6,93,29.86,10.0,Variable,3.5,-,N/A,,Overcast,0,2011-10-03 19:19:00
12:30 PM,46.4,44.6,93,29.86,7.0,Calm,Calm,-,N/A,,Overcast,0,2011-10-03 19:30:00
12:33 PM,46.4,44.6,93,29.86,1.0,Calm,Calm,-,N/A,,Overcast,0,2011-10-03 19:33:00
12:38 PM,44.6,44.6,100,29.86,0.2,WSW,3.5,-,N/A,Fog,Fog,240,2011-10-03 19:38:00
12:56 PM,45.0,44.1,97,29.86,0.2,Variable,3.5,-,N/A,Fog,Fog,0,2011-10-03 19:56:00
1:19 PM,42.8,42.8,100,29.87,0.8,Variable,5.8,-,0.01,Rain,Light Rain,0,2011-10-03 20:19:00
1:21 PM,42.8,42.8,100,29.86,1.5,Variable,6.9,-,0.01,Rain,Light Rain,0,2011-10-03 20:21:00
1:28 PM,42.8,42.8,100,29.86,2.0,SW,6.9,-,0.01,Rain,Light Rain,220,2011-10-03 20:28:00
1:36 PM,42.8,42.8,100,29.86,6.0,Variable,5.8,-,0.01,Rain,Light Rain,0,2011-10-03 20:36:00
1:40 PM,42.8,42.8,100,29.86,6.0,Variable,5.8,-,0.02,Rain,Light Rain,0,2011-10-03 20:40:00
1:56 PM,42.1,41.0,96,29.86,6.0,SW,5.8,-,0.02,,Overcast,230,2011-10-03 20:56:00
2:56 PM,43.0,42.1,97,29.87,4.0,Calm,Calm,-,0.01,,Overcast,0,2011-10-03 21:56:00
3:16 PM,42.8,42.8,100,29.86,5.0,Calm,Calm,-,N/A,,Overcast,0,2011-10-03 22:16:00
3:56 PM,43.0,41.0,93,29.86,10.0,NW,3.5,-,N/A,,Overcast,310,2011-10-03 22:56:00
4:29 PM,44.6,41.0,87,29.86,10.0,Calm,Calm,-,N/A,,Overcast,0,2011-10-03 23:29:00
4:56 PM,44.1,43.0,96,29.85,10.0,Calm,Calm,-,N/A,,Overcast,0,2011-10-03 23:56:00
5:06 PM,44.6,42.8,93,29.86,9.0,Calm,Calm,-,N/A,,Overcast,0,2011-10-04 00:06:00
5:21 PM,42.8,42.8,100,29.86,8.0,Calm,Calm,-,N/A,,Overcast,0,2011-10-04 00:21:00
5:36 PM,42.8,42.8,100,29.86,10.0,Calm,Calm,-,N/A,,Overcast,0,2011-10-04 00:36:00
5:46 PM,42.8,42.8,100,29.86,10.0,Calm,Calm,-,N/A,,Overcast,0,2011-10-04 00:46:00
5:56 PM,43.0,42.1,97,29.87,10.0,Calm,Calm,-,N/A,,Overcast,0,2011-10-04 00:56:00
6:16 PM,42.8,42.8,100,29.86,1.8,Calm,Calm,-,0.00,Rain,Light Rain,0,2011-10-04 01:16:00
6:24 PM,42.8,42.8,100,29.85,3.0,Calm,Calm,-,0.00,Rain,Light Rain,0,2011-10-04 01:24:00
6:56 PM,43.0,42.1,97,29.85,8.0,Calm,Calm,-,0.02,Rain,Light Rain,0,2011-10-04 01:56:00
7:56 PM,42.1,41.0,96,29.85,10.0,Calm,Calm,-,0.01,,Overcast,0,2011-10-04 02:56:00
8:36 PM,42.8,41.0,93,29.83,1.8,Calm,Calm,-,0.01,,Overcast,0,2011-10-04 03:36:00
8:39 PM,42.8,42.8,100,29.83,0.8,WSW,3.5,-,0.01,,Overcast,250,2011-10-04 03:39:00
8:41 PM,42.8,42.8,100,29.83,0.5,WSW,3.5,-,0.01,Fog,Fog,250,2011-10-04 03:41:00
8:46 PM,42.8,42.8,100,29.83,0.2,Calm,Calm,-,0.01,Fog-Rain,Light Rain,0,2011-10-04 03:46:00
8:56 PM,42.1,42.1,100,29.84,0.2,Calm,Calm,-,0.01,Fog-Rain,Light Rain,0,2011-10-04 03:56:00
9:19 PM,42.8,42.8,100,29.83,1.0,Variable,3.5,-,0.01,Rain,Light Rain,0,2011-10-04 04:19:00
9:36 PM,42.8,41.0,93,29.82,0.5,Variable,3.5,-,0.02,Fog-Rain,Light Rain,0,2011-10-04 04:36:00
9:56 PM,42.1,41.0,96,29.83,0.5,Calm,Calm,-,0.02,Fog,Fog,0,2011-10-04 04:56:00
10:07 PM,42.8,41.0,93,29.82,0.2,Calm,Calm,-,N/A,Fog,Fog,0,2011-10-04 05:07:00
10:30 PM,42.8,42.8,100,29.82,0.2,Calm,Calm,-,N/A,Fog,Fog,0,2011-10-04 05:30:00
10:56 PM,41.0,41.0,100,29.81,0.5,Calm,Calm,-,0.01,Fog,Fog,0,2011-10-04 05:56:00
11:23 PM,41.0,41.0,100,29.80,1.0,Calm,Calm,-,N/A,,Overcast,0,2011-10-04 06:23:00
11:29 PM,41.0,41.0,100,29.80,2.0,Calm,Calm,-,N/A,,Overcast,0,2011-10-04 06:29:00
11:34 PM,41.0,39.2,93,29.80,6.0,Calm,Calm,-,N/A,,Overcast,0,2011-10-04 06:34:00
11:56 PM,41.0,41.0,100,29.80,8.0,Calm,Calm,-,N/A,,Overcast,0,2011-10-04 06:56:00